sensor_id;sensor_type;location;lat;lon;timestamp;pressure;altitude;pressure_sealevel;temperature;humidity
31403;BME280;18039;52.188;21.024;2022-11-30T00:01:22;78722.00;;;-141.45;82.61
31403;BME280;18039;52.188;21.024;2022-11-30T00:03:54;78722.00;;;-141.45;83.09
31403;BME280;18039;52.188;21.024;2022-11-30T00:06:22;78715.94;;;-141.45;82.85
31403;BME280;18039;52.188;21.024;2022-11-30T00:08:57;78717.94;;;-141.45;82.87
31403;BME280;18039;52.188;21.024;2022-11-30T00:11:26;78717.94;;;-141.45;82.82
31403;BME280;18039;52.188;21.024;2022-11-30T00:13:54;78713.91;;;-141.45;82.47
31403;BME280;18039;52.188;21.024;2022-11-30T00:16:21;78717.94;;;-141.45;82.69
31403;BME280;18039;52.188;21.024;2022-11-30T00:18:49;78722.00;;;-141.45;83.08
31403;BME280;18039;52.188;21.024;2022-11-30T00:21:17;78717.94;;;-141.45;83.21
31403;BME280;18039;52.188;21.024;2022-11-30T00:23:46;78722.00;;;-141.45;83.24
31403;BME280;18039;52.188;21.024;2022-11-30T00:26:14;78711.88;;;-141.45;83.13
31403;BME280;18039;52.188;21.024;2022-11-30T00:28:42;78717.94;;;-141.45;82.58
31403;BME280;18039;52.188;21.024;2022-11-30T00:31:12;78715.94;;;-141.45;83.01
31403;BME280;18039;52.188;21.024;2022-11-30T00:33:39;78717.94;;;-141.45;82.71
31403;BME280;18039;52.188;21.024;2022-11-30T00:36:10;78724.03;;;-141.45;83.60
31403;BME280;18039;52.188;21.024;2022-11-30T00:38:38;78717.94;;;-141.45;83.40
31403;BME280;18039;52.188;21.024;2022-11-30T00:41:06;78717.94;;;-141.45;83.58
31403;BME280;18039;52.188;21.024;2022-11-30T00:43:33;78722.00;;;-141.45;83.49
31403;BME280;18039;52.188;21.024;2022-11-30T00:46:00;78726.06;;;-141.45;83.45
31403;BME280;18039;52.188;21.024;2022-11-30T00:48:28;78722.00;;;-141.45;83.26
31403;BME280;18039;52.188;21.024;2022-11-30T00:50:55;78713.91;;;-141.45;83.05
31403;BME280;18039;52.188;21.024;2022-11-30T00:53:22;78713.91;;;-141.45;83.11
31403;BME280;18039;52.188;21.024;2022-11-30T00:55:49;78730.13;;;-141.45;83.13
31403;BME280;18039;52.188;21.024;2022-11-30T00:58:16;78730.13;;;-141.45;82.80
31403;BME280;18039;52.188;21.024;2022-11-30T01:00:43;78717.94;;;-141.45;83.01
31403;BME280;18039;52.188;21.024;2022-11-30T01:03:11;78724.03;;;-141.45;83.13
31403;BME280;18039;52.188;21.024;2022-11-30T01:05:38;78728.09;;;-141.45;82.97
31403;BME280;18039;52.188;21.024;2022-11-30T01:08:08;78726.06;;;-141.45;82.72
31403;BME280;18039;52.188;21.024;2022-11-30T01:10:37;78734.19;;;-141.45;83.13
31403;BME280;18039;52.188;21.024;2022-11-30T01:13:05;78738.22;;;-141.45;83.37
31403;BME280;18039;52.188;21.024;2022-11-30T01:15:37;78742.28;;;-141.45;83.47
31403;BME280;18039;52.188;21.024;2022-11-30T01:18:06;78722.00;;;-141.45;83.09
31403;BME280;18039;52.188;21.024;2022-11-30T01:20:33;78726.06;;;-141.45;83.44
31403;BME280;18039;52.188;21.024;2022-11-30T01:23:00;78726.06;;;-141.45;83.32
31403;BME280;18039;52.188;21.024;2022-11-30T01:25:27;78722.00;;;-141.45;83.55
31403;BME280;18039;52.188;21.024;2022-11-30T01:27:54;78726.06;;;-141.45;83.55
31403;BME280;18039;52.188;21.024;2022-11-30T01:30:21;78719.97;;;-141.45;83.72
31403;BME280;18039;52.188;21.024;2022-11-30T01:32:48;78717.94;;;-141.45;83.55
31403;BME280;18039;52.188;21.024;2022-11-30T01:35:15;78719.97;;;-141.45;83.36
31403;BME280;18039;52.188;21.024;2022-11-30T01:37:42;78713.91;;;-141.45;83.56
31403;BME280;18039;52.188;21.024;2022-11-30T01:40:10;78715.94;;;-141.45;83.24
31403;BME280;18039;52.188;21.024;2022-11-30T01:42:44;78719.97;;;-141.45;83.38
31403;BME280;18039;52.188;21.024;2022-11-30T01:45:12;78726.06;;;-141.45;83.08
31403;BME280;18039;52.188;21.024;2022-11-30T01:47:44;78724.03;;;-141.45;82.99
31403;BME280;18039;52.188;21.024;2022-11-30T01:50:17;78730.13;;;-141.45;82.78
31403;BME280;18039;52.188;21.024;2022-11-30T01:52:47;78730.13;;;-141.45;82.74
31403;BME280;18039;52.188;21.024;2022-11-30T01:55:31;78734.19;;;-141.45;82.65
31403;BME280;18039;52.188;21.024;2022-11-30T01:58:10;78738.22;;;-141.45;82.88
31403;BME280;18039;52.188;21.024;2022-11-30T02:00:41;78728.09;;;-141.45;82.88
31403;BME280;18039;52.188;21.024;2022-11-30T02:03:12;78738.22;;;-141.45;82.91
31403;BME280;18039;52.188;21.024;2022-11-30T02:05:43;78734.19;;;-141.45;83.21
31403;BME280;18039;52.188;21.024;2022-11-30T02:08:11;78732.16;;;-141.45;82.97
31403;BME280;18039;52.188;21.024;2022-11-30T02:10:41;78740.25;;;-141.45;83.00
31403;BME280;18039;52.188;21.024;2022-11-30T02:13:34;78742.28;;;-141.45;82.94
31403;BME280;18039;52.188;21.024;2022-11-30T02:18:50;78742.28;;;-141.45;83.45
31403;BME280;18039;52.188;21.024;2022-11-30T02:21:33;78734.19;;;-141.45;83.20
31403;BME280;18039;52.188;21.024;2022-11-30T02:29:55;78734.19;;;-141.45;83.63
31403;BME280;18039;52.188;21.024;2022-11-30T02:32:38;78738.22;;;-141.45;83.58
31403;BME280;18039;52.188;21.024;2022-11-30T02:35:08;78734.19;;;-141.45;83.58
31403;BME280;18039;52.188;21.024;2022-11-30T02:37:36;78730.13;;;-141.45;83.44
31403;BME280;18039;52.188;21.024;2022-11-30T02:40:09;78738.22;;;-141.45;83.38
31403;BME280;18039;52.188;21.024;2022-11-30T02:42:36;78734.19;;;-141.45;82.98
31403;BME280;18039;52.188;21.024;2022-11-30T02:45:04;78730.13;;;-141.45;82.99
31403;BME280;18039;52.188;21.024;2022-11-30T02:50:24;78734.19;;;-141.45;82.14
31403;BME280;18039;52.188;21.024;2022-11-30T02:52:54;78734.19;;;-141.45;82.08
31403;BME280;18039;52.188;21.024;2022-11-30T02:55:22;78738.22;;;-141.45;82.30
31403;BME280;18039;52.188;21.024;2022-11-30T02:57:48;78730.13;;;-141.45;82.50
31403;BME280;18039;52.188;21.024;2022-11-30T03:00:16;78740.25;;;-141.45;82.46
31403;BME280;18039;52.188;21.024;2022-11-30T03:02:43;78736.22;;;-141.45;82.42
31403;BME280;18039;52.188;21.024;2022-11-30T03:05:10;78738.22;;;-141.45;82.37
31403;BME280;18039;52.188;21.024;2022-11-30T03:07:37;78750.41;;;-141.45;82.27
31403;BME280;18039;52.188;21.024;2022-11-30T03:10:05;78754.47;;;-141.45;82.76
31403;BME280;18039;52.188;21.024;2022-11-30T03:12:32;78748.38;;;-141.45;82.57
31403;BME280;18039;52.188;21.024;2022-11-30T03:14:59;78750.41;;;-141.45;82.41
31403;BME280;18039;52.188;21.024;2022-11-30T03:17:27;78754.47;;;-141.45;82.39
31403;BME280;18039;52.188;21.024;2022-11-30T03:19:54;78750.41;;;-141.45;82.30
31403;BME280;18039;52.188;21.024;2022-11-30T03:22:22;78756.50;;;-141.45;82.48
31403;BME280;18039;52.188;21.024;2022-11-30T03:24:50;78758.53;;;-141.45;82.18
31403;BME280;18039;52.188;21.024;2022-11-30T03:27:17;78752.44;;;-141.45;82.60
31403;BME280;18039;52.188;21.024;2022-11-30T03:29:44;78746.34;;;-141.45;82.42
31403;BME280;18039;52.188;21.024;2022-11-30T03:32:13;78758.53;;;-141.45;82.40
31403;BME280;18039;52.188;21.024;2022-11-30T03:34:40;78762.56;;;-141.45;82.85
31403;BME280;18039;52.188;21.024;2022-11-30T03:37:07;78758.53;;;-141.45;83.19
31403;BME280;18039;52.188;21.024;2022-11-30T03:39:34;78754.47;;;-141.45;83.27
31403;BME280;18039;52.188;21.024;2022-11-30T03:42:00;78766.63;;;-141.45;83.22
31403;BME280;18039;52.188;21.024;2022-11-30T03:44:28;78770.69;;;-141.45;83.28
31403;BME280;18039;52.188;21.024;2022-11-30T03:46:55;78766.63;;;-141.45;83.01
31403;BME280;18039;52.188;21.024;2022-11-30T03:49:22;78766.63;;;-141.45;82.96
31403;BME280;18039;52.188;21.024;2022-11-30T03:51:49;78762.56;;;-141.45;82.45
31403;BME280;18039;52.188;21.024;2022-11-30T03:54:16;78768.66;;;-141.45;82.83
31403;BME280;18039;52.188;21.024;2022-11-30T03:56:43;78770.69;;;-141.45;82.88
31403;BME280;18039;52.188;21.024;2022-11-30T03:59:10;78766.63;;;-141.45;82.62
31403;BME280;18039;52.188;21.024;2022-11-30T04:01:37;78774.75;;;-141.45;83.05
31403;BME280;18039;52.188;21.024;2022-11-30T04:04:07;78762.56;;;-141.45;82.64
31403;BME280;18039;52.188;21.024;2022-11-30T04:06:33;78766.63;;;-141.45;82.57
31403;BME280;18039;52.188;21.024;2022-11-30T04:09:00;78770.69;;;-141.45;82.57
31403;BME280;18039;52.188;21.024;2022-11-30T04:11:28;78770.69;;;-141.45;82.10
31403;BME280;18039;52.188;21.024;2022-11-30T04:13:56;78780.84;;;-141.45;82.30
31403;BME280;18039;52.188;21.024;2022-11-30T04:16:22;78778.81;;;-141.45;81.85
31403;BME280;18039;52.188;21.024;2022-11-30T04:18:50;78766.63;;;-141.45;82.29
31403;BME280;18039;52.188;21.024;2022-11-30T04:21:17;78766.63;;;-141.45;82.15
31403;BME280;18039;52.188;21.024;2022-11-30T04:23:44;78770.69;;;-141.45;82.63
31403;BME280;18039;52.188;21.024;2022-11-30T04:26:15;78766.63;;;-141.45;82.60
31403;BME280;18039;52.188;21.024;2022-11-30T04:28:42;78770.69;;;-141.45;82.50
31403;BME280;18039;52.188;21.024;2022-11-30T04:31:10;78758.53;;;-141.45;82.27
31403;BME280;18039;52.188;21.024;2022-11-30T04:33:38;78762.56;;;-141.45;82.25
31403;BME280;18039;52.188;21.024;2022-11-30T04:36:06;78762.56;;;-141.45;82.68
31403;BME280;18039;52.188;21.024;2022-11-30T04:38:52;78762.56;;;-141.45;82.27
31403;BME280;18039;52.188;21.024;2022-11-30T04:41:19;78762.56;;;-141.45;82.72
31403;BME280;18039;52.188;21.024;2022-11-30T04:43:46;78762.56;;;-141.45;82.19
31403;BME280;18039;52.188;21.024;2022-11-30T04:46:13;78766.63;;;-141.45;82.56
31403;BME280;18039;52.188;21.024;2022-11-30T04:48:40;78762.56;;;-141.45;82.46
31403;BME280;18039;52.188;21.024;2022-11-30T04:51:08;78758.53;;;-141.45;82.45
31403;BME280;18039;52.188;21.024;2022-11-30T04:53:36;78762.56;;;-141.45;81.89
31403;BME280;18039;52.188;21.024;2022-11-30T04:56:07;78766.63;;;-141.45;81.93
31403;BME280;18039;52.188;21.024;2022-11-30T04:58:36;78766.63;;;-141.45;82.16
31403;BME280;18039;52.188;21.024;2022-11-30T05:01:05;78774.75;;;-141.45;81.96
31403;BME280;18039;52.188;21.024;2022-11-30T05:03:33;78770.69;;;-141.45;82.11
31403;BME280;18039;52.188;21.024;2022-11-30T05:06:00;78766.63;;;-141.45;82.45
31403;BME280;18039;52.188;21.024;2022-11-30T05:08:28;78766.63;;;-141.45;82.45
31403;BME280;18039;52.188;21.024;2022-11-30T05:10:55;78768.66;;;-141.45;82.22
31403;BME280;18039;52.188;21.024;2022-11-30T05:13:24;78764.59;;;-141.45;82.30
31403;BME280;18039;52.188;21.024;2022-11-30T05:15:51;78766.63;;;-141.45;82.39
31403;BME280;18039;52.188;21.024;2022-11-30T05:18:19;78766.63;;;-141.45;82.63
31403;BME280;18039;52.188;21.024;2022-11-30T05:20:48;78766.63;;;-141.45;82.58
31403;BME280;18039;52.188;21.024;2022-11-30T05:23:16;78762.56;;;-141.45;83.06
31403;BME280;18039;52.188;21.024;2022-11-30T05:25:43;78758.53;;;-141.45;82.84
31403;BME280;18039;52.188;21.024;2022-11-30T05:28:11;78754.47;;;-141.45;82.80
31403;BME280;18039;52.188;21.024;2022-11-30T05:30:39;78762.56;;;-141.45;82.96
31403;BME280;18039;52.188;21.024;2022-11-30T05:33:06;78758.53;;;-141.45;82.84
31403;BME280;18039;52.188;21.024;2022-11-30T05:35:35;78752.44;;;-141.45;83.11
31403;BME280;18039;52.188;21.024;2022-11-30T05:38:02;78754.47;;;-141.45;82.72
31403;BME280;18039;52.188;21.024;2022-11-30T05:40:30;78762.56;;;-141.45;82.96
31403;BME280;18039;52.188;21.024;2022-11-30T05:43:00;78766.63;;;-141.45;82.97
31403;BME280;18039;52.188;21.024;2022-11-30T05:45:28;78770.69;;;-141.45;82.88
31403;BME280;18039;52.188;21.024;2022-11-30T05:47:55;78764.59;;;-141.45;83.03
31403;BME280;18039;52.188;21.024;2022-11-30T05:50:22;78766.63;;;-141.45;82.82
31403;BME280;18039;52.188;21.024;2022-11-30T05:52:53;78774.75;;;-141.45;82.90
31403;BME280;18039;52.188;21.024;2022-11-30T05:55:23;78782.84;;;-141.45;82.74
31403;BME280;18039;52.188;21.024;2022-11-30T05:57:51;78774.75;;;-141.45;83.00
31403;BME280;18039;52.188;21.024;2022-11-30T06:00:19;78770.69;;;-141.45;83.05
31403;BME280;18039;52.188;21.024;2022-11-30T06:02:46;78762.56;;;-141.45;82.88
31403;BME280;18039;52.188;21.024;2022-11-30T06:05:14;78764.59;;;-141.45;82.82
31403;BME280;18039;52.188;21.024;2022-11-30T06:07:40;78770.69;;;-141.45;82.63
31403;BME280;18039;52.188;21.024;2022-11-30T06:10:08;78766.63;;;-141.45;82.62
31403;BME280;18039;52.188;21.024;2022-11-30T06:12:35;78770.69;;;-141.45;82.67
31403;BME280;18039;52.188;21.024;2022-11-30T06:15:03;78766.63;;;-141.45;82.72
31403;BME280;18039;52.188;21.024;2022-11-30T06:17:30;78768.66;;;-141.45;82.56
31403;BME280;18039;52.188;21.024;2022-11-30T06:19:57;78762.56;;;-141.45;82.54
31403;BME280;18039;52.188;21.024;2022-11-30T06:22:24;78762.56;;;-141.45;82.69
31403;BME280;18039;52.188;21.024;2022-11-30T06:24:51;78764.59;;;-141.45;82.42
31403;BME280;18039;52.188;21.024;2022-11-30T06:27:18;78768.66;;;-141.45;82.97
31403;BME280;18039;52.188;21.024;2022-11-30T06:29:45;78770.69;;;-141.45;83.30
31403;BME280;18039;52.188;21.024;2022-11-30T06:32:12;78766.63;;;-141.45;83.41
31403;BME280;18039;52.188;21.024;2022-11-30T06:34:39;78770.69;;;-141.45;83.84
31403;BME280;18039;52.188;21.024;2022-11-30T06:37:06;78778.81;;;-141.45;84.04
31403;BME280;18039;52.188;21.024;2022-11-30T06:39:33;78778.81;;;-141.45;84.26
31403;BME280;18039;52.188;21.024;2022-11-30T06:42:20;78770.69;;;-141.45;84.03
31403;BME280;18039;52.188;21.024;2022-11-30T06:44:47;78774.75;;;-141.45;83.93
31403;BME280;18039;52.188;21.024;2022-11-30T06:47:15;78774.75;;;-141.45;83.35
31403;BME280;18039;52.188;21.024;2022-11-30T06:49:42;78766.63;;;-141.45;83.35
31403;BME280;18039;52.188;21.024;2022-11-30T06:52:09;78762.56;;;-141.45;83.41
31403;BME280;18039;52.188;21.024;2022-11-30T06:54:36;78758.53;;;-141.45;83.47
31403;BME280;18039;52.188;21.024;2022-11-30T06:57:03;78758.53;;;-141.45;83.45
31403;BME280;18039;52.188;21.024;2022-11-30T06:59:30;78752.44;;;-141.45;83.38
31403;BME280;18039;52.188;21.024;2022-11-30T07:01:57;78762.56;;;-141.45;83.74
31403;BME280;18039;52.188;21.024;2022-11-30T07:04:32;78754.47;;;-141.45;83.77
31403;BME280;18039;52.188;21.024;2022-11-30T07:06:59;78758.53;;;-141.45;83.52
31403;BME280;18039;52.188;21.024;2022-11-30T07:09:26;78770.69;;;-141.45;83.21
31403;BME280;18039;52.188;21.024;2022-11-30T07:11:53;78770.69;;;-141.45;83.78
31403;BME280;18039;52.188;21.024;2022-11-30T07:14:20;78766.63;;;-141.45;83.61
31403;BME280;18039;52.188;21.024;2022-11-30T07:16:47;78762.56;;;-141.45;83.61
31403;BME280;18039;52.188;21.024;2022-11-30T07:19:14;78766.63;;;-141.45;83.51
31403;BME280;18039;52.188;21.024;2022-11-30T07:21:41;78762.56;;;-141.45;83.26
31403;BME280;18039;52.188;21.024;2022-11-30T07:24:10;78756.50;;;-141.45;83.18
31403;BME280;18039;52.188;21.024;2022-11-30T07:26:58;78760.56;;;-141.45;83.09
31403;BME280;18039;52.188;21.024;2022-11-30T07:29:26;78758.53;;;-141.45;83.05
31403;BME280;18039;52.188;21.024;2022-11-30T07:31:53;78756.50;;;-141.45;83.05
31403;BME280;18039;52.188;21.024;2022-11-30T07:34:21;78758.53;;;-141.45;83.02
31403;BME280;18039;52.188;21.024;2022-11-30T07:36:48;78758.53;;;-141.45;83.21
31403;BME280;18039;52.188;21.024;2022-11-30T07:39:15;78752.44;;;-141.45;83.00
31403;BME280;18039;52.188;21.024;2022-11-30T07:41:43;78754.47;;;-141.45;82.72
31403;BME280;18039;52.188;21.024;2022-11-30T07:44:10;78754.47;;;-141.45;82.83
31403;BME280;18039;52.188;21.024;2022-11-30T07:46:37;78758.53;;;-141.45;82.62
31403;BME280;18039;52.188;21.024;2022-11-30T07:49:06;78750.41;;;-141.45;82.75
31403;BME280;18039;52.188;21.024;2022-11-30T07:51:35;78754.47;;;-141.45;82.75
31403;BME280;18039;52.188;21.024;2022-11-30T07:54:02;78758.53;;;-141.45;82.83
31403;BME280;18039;52.188;21.024;2022-11-30T07:56:30;78766.63;;;-141.45;82.66
31403;BME280;18039;52.188;21.024;2022-11-30T07:58:59;78766.63;;;-141.45;83.27
31403;BME280;18039;52.188;21.024;2022-11-30T08:01:29;78758.53;;;-141.45;82.76
31403;BME280;18039;52.188;21.024;2022-11-30T08:03:57;78754.47;;;-141.45;82.16
31403;BME280;18039;52.188;21.024;2022-11-30T08:06:27;78754.47;;;-141.45;82.55
31403;BME280;18039;52.188;21.024;2022-11-30T08:08:58;78766.63;;;-141.45;83.17
31403;BME280;18039;52.188;21.024;2022-11-30T08:11:28;78766.63;;;-141.45;82.44
31403;BME280;18039;52.188;21.024;2022-11-30T08:13:56;78782.84;;;-141.45;82.80
31403;BME280;18039;52.188;21.024;2022-11-30T08:16:25;78782.84;;;-141.45;83.41
31403;BME280;18039;52.188;21.024;2022-11-30T08:18:56;78803.16;;;-141.45;84.02
31403;BME280;18039;52.188;21.024;2022-11-30T08:21:24;78793.00;;;-141.45;83.49
31403;BME280;18039;52.188;21.024;2022-11-30T08:23:55;78805.19;;;-141.45;83.43
31403;BME280;18039;52.188;21.024;2022-11-30T08:26:25;78799.09;;;-141.45;84.03
31403;BME280;18039;52.188;21.024;2022-11-30T08:28:53;78790.97;;;-141.45;84.13
31403;BME280;18039;52.188;21.024;2022-11-30T08:31:30;78801.13;;;-141.45;83.71
31403;BME280;18039;52.188;21.024;2022-11-30T08:34:06;78795.03;;;-141.45;84.07
31403;BME280;18039;52.188;21.024;2022-11-30T08:36:33;78799.09;;;-141.45;84.25
31403;BME280;18039;52.188;21.024;2022-11-30T08:39:03;78803.16;;;-141.45;83.59
31403;BME280;18039;52.188;21.024;2022-11-30T08:41:32;78805.19;;;-141.45;84.06
31403;BME280;18039;52.188;21.024;2022-11-30T08:44:00;78795.03;;;-141.45;83.88
31403;BME280;18039;52.188;21.024;2022-11-30T08:46:27;78809.22;;;-141.45;83.79
31403;BME280;18039;52.188;21.024;2022-11-30T08:49:14;78790.97;;;-141.45;83.52
31403;BME280;18039;52.188;21.024;2022-11-30T08:51:53;78803.16;;;-141.45;83.94
31403;BME280;18039;52.188;21.024;2022-11-30T08:54:45;78811.25;;;-141.45;84.15
31403;BME280;18039;52.188;21.024;2022-11-30T08:57:19;78803.16;;;-141.45;84.22
31403;BME280;18039;52.188;21.024;2022-11-30T08:59:47;78803.16;;;-141.45;83.77
31403;BME280;18039;52.188;21.024;2022-11-30T09:02:16;78807.19;;;-141.45;84.26
31403;BME280;18039;52.188;21.024;2022-11-30T09:04:46;78807.19;;;-141.45;84.23
31403;BME280;18039;52.188;21.024;2022-11-30T09:07:15;78803.16;;;-141.45;83.98
31403;BME280;18039;52.188;21.024;2022-11-30T09:09:42;78811.25;;;-141.45;84.07
31403;BME280;18039;52.188;21.024;2022-11-30T09:12:10;78811.25;;;-141.45;83.96
31403;BME280;18039;52.188;21.024;2022-11-30T09:14:37;78807.19;;;-141.45;83.82
31403;BME280;18039;52.188;21.024;2022-11-30T09:17:04;78827.47;;;-141.45;84.18
31403;BME280;18039;52.188;21.024;2022-11-30T09:19:31;78835.59;;;-141.45;84.70
31403;BME280;18039;52.188;21.024;2022-11-30T09:21:58;78823.44;;;-141.45;84.98
31403;BME280;18039;52.188;21.024;2022-11-30T09:24:26;78813.28;;;-141.45;85.02
31403;BME280;18039;52.188;21.024;2022-11-30T09:26:54;78813.28;;;-141.45;84.92
31403;BME280;18039;52.188;21.024;2022-11-30T09:29:22;78813.28;;;-141.45;84.27
31403;BME280;18039;52.188;21.024;2022-11-30T09:31:49;78823.44;;;-141.45;84.48
31403;BME280;18039;52.188;21.024;2022-11-30T09:34:17;78819.38;;;-141.45;84.64
31403;BME280;18039;52.188;21.024;2022-11-30T09:36:43;78817.34;;;-141.45;84.42
31403;BME280;18039;52.188;21.024;2022-11-30T09:39:11;78819.38;;;-141.45;84.48
31403;BME280;18039;52.188;21.024;2022-11-30T09:49:36;78819.38;;;-141.45;84.96
31403;BME280;18039;52.188;21.024;2022-11-30T09:52:55;78823.44;;;-141.45;85.04
31403;BME280;18039;52.188;21.024;2022-11-30T09:54:56;78811.25;;;-141.45;85.11
31403;BME280;18039;52.188;21.024;2022-11-30T10:00:17;78811.25;;;-141.45;84.29
31403;BME280;18039;52.188;21.024;2022-11-30T10:02:44;78819.38;;;-141.45;84.92
31403;BME280;18039;52.188;21.024;2022-11-30T10:05:18;78811.25;;;-141.45;84.54
31403;BME280;18039;52.188;21.024;2022-11-30T10:10:41;78811.25;;;-141.45;85.42
31403;BME280;18039;52.188;21.024;2022-11-30T10:19:03;78790.97;;;-141.45;85.06
31403;BME280;18039;52.188;21.024;2022-11-30T10:26:56;78786.91;;;-141.45;84.66
31403;BME280;18039;52.188;21.024;2022-11-30T10:29:29;78774.75;;;-141.45;85.03
31403;BME280;18039;52.188;21.024;2022-11-30T10:31:59;78770.69;;;-141.45;84.90
31403;BME280;18039;52.188;21.024;2022-11-30T10:34:31;78776.78;;;-141.45;84.61
31403;BME280;18039;52.188;21.024;2022-11-30T10:40:02;78778.81;;;-141.45;85.32
31403;BME280;18039;52.188;21.024;2022-11-30T10:42:43;78778.81;;;-141.45;84.88
31403;BME280;18039;52.188;21.024;2022-11-30T10:45:14;78776.78;;;-141.45;85.10
31403;BME280;18039;52.188;21.024;2022-11-30T10:47:58;78774.75;;;-141.45;85.28
31403;BME280;18039;52.188;21.024;2022-11-30T10:50:29;78776.78;;;-141.45;85.25
31403;BME280;18039;52.188;21.024;2022-11-30T10:52:58;78778.81;;;-141.45;85.15
31403;BME280;18039;52.188;21.024;2022-11-30T10:55:29;78766.63;;;-141.45;85.19
31403;BME280;18039;52.188;21.024;2022-11-30T10:58:02;78766.63;;;-141.45;85.97
31403;BME280;18039;52.188;21.024;2022-11-30T11:00:33;78758.53;;;-141.45;85.41
31403;BME280;18039;52.188;21.024;2022-11-30T11:03:00;78762.56;;;-141.45;85.47
31403;BME280;18039;52.188;21.024;2022-11-30T11:05:28;78770.69;;;-141.45;85.56
31403;BME280;18039;52.188;21.024;2022-11-30T11:10:48;78782.84;;;-141.45;85.50
31403;BME280;18039;52.188;21.024;2022-11-30T11:13:19;78780.84;;;-141.45;86.04
31403;BME280;18039;52.188;21.024;2022-11-30T11:16:02;78778.81;;;-141.45;86.69
31403;BME280;18039;52.188;21.024;2022-11-30T11:18:31;78774.75;;;-141.45;85.83
31403;BME280;18039;52.188;21.024;2022-11-30T11:21:06;78766.63;;;-141.45;86.47
31403;BME280;18039;52.188;21.024;2022-11-30T11:23:43;78770.69;;;-141.45;86.04
31403;BME280;18039;52.188;21.024;2022-11-30T11:26:23;78784.88;;;-141.45;86.93
31403;BME280;18039;52.188;21.024;2022-11-30T11:28:52;78770.69;;;-141.45;87.14
31403;BME280;18039;52.188;21.024;2022-11-30T11:31:44;78762.56;;;-141.45;87.06
31403;BME280;18039;52.188;21.024;2022-11-30T11:34:32;78770.69;;;-141.45;86.35
31403;BME280;18039;52.188;21.024;2022-11-30T11:37:27;78764.59;;;-141.45;86.38
31403;BME280;18039;52.188;21.024;2022-11-30T11:42:21;78748.38;;;-141.45;86.62
31403;BME280;18039;52.188;21.024;2022-11-30T11:44:52;78740.25;;;-141.45;86.74
31403;BME280;18039;52.188;21.024;2022-11-30T11:47:39;78748.38;;;-141.45;86.44
31403;BME280;18039;52.188;21.024;2022-11-30T11:50:30;78756.50;;;-141.45;87.26
31403;BME280;18039;52.188;21.024;2022-11-30T11:53:23;78762.56;;;-141.45;87.60
31403;BME280;18039;52.188;21.024;2022-11-30T11:56:30;78754.47;;;-141.45;87.84
31403;BME280;18039;52.188;21.024;2022-11-30T11:59:02;78756.50;;;-141.45;88.01
31403;BME280;18039;52.188;21.024;2022-11-30T12:10:16;78766.63;;;-141.45;88.50
31403;BME280;18039;52.188;21.024;2022-11-30T12:13:14;78782.84;;;-141.45;88.68
31403;BME280;18039;52.188;21.024;2022-11-30T12:21:14;78778.81;;;-141.45;88.88
31403;BME280;18039;52.188;21.024;2022-11-30T12:24:08;78772.72;;;-141.45;89.10
31403;BME280;18039;52.188;21.024;2022-11-30T12:32:48;78762.56;;;-141.45;88.94
31403;BME280;18039;52.188;21.024;2022-11-30T12:38:05;78752.44;;;-141.45;88.91
31403;BME280;18039;52.188;21.024;2022-11-30T12:40:59;78766.63;;;-141.45;89.65
31403;BME280;18039;52.188;21.024;2022-11-30T12:43:53;78758.53;;;-141.45;89.34
31403;BME280;18039;52.188;21.024;2022-11-30T12:46:28;78754.47;;;-141.45;89.30
31403;BME280;18039;52.188;21.024;2022-11-30T12:51:48;78750.41;;;-141.45;89.35
31403;BME280;18039;52.188;21.024;2022-11-30T12:54:28;78750.41;;;-141.45;88.97
31403;BME280;18039;52.188;21.024;2022-11-30T12:57:26;78756.50;;;-141.45;88.83
31403;BME280;18039;52.188;21.024;2022-11-30T13:00:18;78754.47;;;-141.45;88.46
31403;BME280;18039;52.188;21.024;2022-11-30T13:05:36;78750.41;;;-141.45;87.85
31403;BME280;18039;52.188;21.024;2022-11-30T13:08:22;78766.63;;;-141.45;87.65
31403;BME280;18039;52.188;21.024;2022-11-30T13:11:05;78770.69;;;-141.45;88.16
31403;BME280;18039;52.188;21.024;2022-11-30T13:13:45;78758.53;;;-141.45;88.58
31403;BME280;18039;52.188;21.024;2022-11-30T13:16:14;78754.47;;;-141.45;88.56
31403;BME280;18039;52.188;21.024;2022-11-30T13:18:42;78750.41;;;-141.45;88.12
31403;BME280;18039;52.188;21.024;2022-11-30T13:21:19;78750.41;;;-141.45;87.75
31403;BME280;18039;52.188;21.024;2022-11-30T13:24:05;78754.47;;;-141.45;86.96
31403;BME280;18039;52.188;21.024;2022-11-30T13:26:37;78752.44;;;-141.45;87.13
31403;BME280;18039;52.188;21.024;2022-11-30T13:32:10;78750.41;;;-141.45;86.74
31403;BME280;18039;52.188;21.024;2022-11-30T13:38:02;78736.22;;;-141.45;86.86
31403;BME280;18039;52.188;21.024;2022-11-30T13:40:58;78738.22;;;-141.45;87.21
31403;BME280;18039;52.188;21.024;2022-11-30T13:43:47;78742.28;;;-141.45;86.74
31403;BME280;18039;52.188;21.024;2022-11-30T13:46:18;78754.47;;;-141.45;86.69
31403;BME280;18039;52.188;21.024;2022-11-30T13:48:47;78762.56;;;-141.45;87.03
31403;BME280;18039;52.188;21.024;2022-11-30T13:51:35;78754.47;;;-141.45;87.51
31403;BME280;18039;52.188;21.024;2022-11-30T13:54:44;78752.44;;;-141.45;87.44
31403;BME280;18039;52.188;21.024;2022-11-30T13:59:56;78742.28;;;-141.45;86.62
31403;BME280;18039;52.188;21.024;2022-11-30T14:08:08;78738.22;;;-141.45;85.67
31403;BME280;18039;52.188;21.024;2022-11-30T14:10:36;78748.38;;;-141.45;86.14
31403;BME280;18039;52.188;21.024;2022-11-30T14:13:27;78746.34;;;-141.45;85.50
31403;BME280;18039;52.188;21.024;2022-11-30T14:15:59;78750.41;;;-141.45;85.52
31403;BME280;18039;52.188;21.024;2022-11-30T14:18:38;78762.56;;;-141.45;86.02